Time;durP1;ratioP1;P1;durP2;ratioP2;P2;SDS_P1;SDS_P2;PMS_P1;PMS_P2;Temp;Humidity;BMP_temperature;BMP_pressure;BME280_temperature;BME280_humidity;BME280_pressure;Samples;Min_cycle;Max_cycle;Signal;HPM_P1;HPM_P2
2021/01/25 00:00:12;;;;;;;13.15;5.93;;;0.90;99.90;;;;;;4954167;29;20135;-78
2021/01/25 00:02:38;;;;;;;9.38;6.00;;;1.00;99.90;;;;;;4954104;29;20029;-77
2021/01/25 00:05:06;;;;;;;11.50;6.40;;;0.80;99.90;;;;;;4954159;29;20023;-78
2021/01/25 00:07:32;;;;;;;11.90;6.90;;;0.80;99.90;;;;;;4954113;29;20055;-78
2021/01/25 00:09:59;;;;;;;11.65;5.82;;;0.80;99.90;;;;;;4954073;29;20487;-75
2021/01/25 00:12:25;;;;;;;9.43;5.28;;;0.80;99.90;;;;;;4953953;29;20047;-78
2021/01/25 00:14:51;;;;;;;10.50;5.43;;;0.70;99.90;;;;;;4955320;28;20106;-77
2021/01/25 00:17:16;;;;;;;10.00;5.78;;;0.70;99.90;;;;;;4954050;29;20484;-77
2021/01/25 00:19:42;;;;;;;9.38;5.88;;;0.90;99.90;;;;;;4953957;29;20034;-76
2021/01/25 00:22:08;;;;;;;8.85;5.03;;;0.90;99.90;;;;;;4954053;29;20075;-76
2021/01/25 00:24:33;;;;;;;11.30;6.20;;;1.00;99.90;;;;;;4954873;29;20345;-76
2021/01/25 00:26:59;;;;;;;12.90;5.88;;;1.10;99.90;;;;;;4938248;29;20042;-76
2021/01/25 00:29:25;;;;;;;10.20;5.75;;;1.10;99.90;;;;;;4953956;29;20027;-76
2021/01/25 00:31:51;;;;;;;9.15;5.75;;;1.00;99.90;;;;;;4955226;29;20391;-76
2021/01/25 00:34:16;;;;;;;9.65;5.88;;;1.10;99.90;;;;;;4953968;29;20418;-78
2021/01/25 00:36:42;;;;;;;10.35;6.00;;;1.30;99.90;;;;;;4953828;28;20031;-75
2021/01/25 00:39:08;;;;;;;9.57;5.75;;;1.40;99.90;;;;;;4953789;29;20031;-79
2021/01/25 00:41:33;;;;;;;9.45;6.00;;;1.60;99.90;;;;;;4953922;29;20055;-79
2021/01/25 00:43:59;;;;;;;11.85;5.82;;;1.60;99.90;;;;;;4953872;29;20023;-76
2021/01/25 00:46:25;;;;;;;10.23;5.00;;;1.20;99.90;;;;;;4955463;28;20032;-76
2021/01/25 00:48:52;;;;;;;8.80;5.43;;;0.90;99.90;;;;;;4953620;29;20050;-77
2021/01/25 00:51:17;;;;;;;10.02;5.35;;;0.90;99.90;;;;;;4953823;29;20039;-76
2021/01/25 00:53:43;;;;;;;11.75;5.47;;;0.70;99.90;;;;;;4953785;29;20091;-76
2021/01/25 00:56:11;;;;;;;12.25;5.63;;;0.60;99.90;;;;;;4953731;29;20114;-79
2021/01/25 00:58:37;;;;;;;12.55;5.60;;;0.60;99.90;;;;;;4953706;29;20023;-76
2021/01/25 01:01:04;;;;;;;13.30;7.20;;;0.80;99.90;;;;;;4955169;28;20027;-76
2021/01/25 01:03:30;;;;;;;10.75;5.93;;;0.70;99.90;;;;;;4953728;29;20463;-78
2021/01/25 01:05:55;;;;;;;8.43;5.30;;;0.80;99.90;;;;;;4953721;29;20070;-79
2021/01/25 01:08:21;;;;;;;9.52;4.95;;;1.10;99.90;;;;;;4953647;29;20035;-78
2021/01/25 01:10:47;;;;;;;12.25;5.55;;;1.20;99.90;;;;;;4953583;29;20027;-78
2021/01/25 01:13:13;;;;;;;8.80;5.60;;;1.20;99.90;;;;;;4953616;29;20031;-78
2021/01/25 01:15:38;;;;;;;9.13;5.13;;;1.20;99.90;;;;;;4953610;29;20031;-78
2021/01/25 01:18:05;;;;;;;9.45;5.60;;;1.10;99.90;;;;;;4953561;29;20502;-77
2021/01/25 01:20:31;;;;;;;8.88;5.10;;;1.30;99.90;;;;;;4954755;28;20027;-78
2021/01/25 01:22:58;;;;;;;9.68;5.20;;;1.30;99.90;;;;;;4956114;28;20034;-77
2021/01/25 01:25:24;;;;;;;9.52;4.80;;;1.10;99.90;;;;;;4941219;29;20118;-78
2021/01/25 01:27:49;;;;;;;7.38;4.50;;;1.10;99.90;;;;;;4956880;29;20110;-78
2021/01/25 01:30:16;;;;;;;8.85;5.38;;;1.10;99.90;;;;;;4956932;29;20031;-79
2021/01/25 01:32:42;;;;;;;8.25;4.93;;;1.10;99.90;;;;;;4956812;29;20054;-78
2021/01/25 01:35:08;;;;;;;9.05;5.40;;;1.20;99.90;;;;;;4956807;29;20034;-78
2021/01/25 01:37:34;;;;;;;8.70;4.85;;;1.40;99.90;;;;;;4956712;28;20038;-78
2021/01/25 01:40:03;;;;;;;7.93;4.57;;;1.30;99.90;;;;;;4956642;29;20037;-78
2021/01/25 01:42:28;;;;;;;9.30;4.60;;;1.00;99.90;;;;;;4956682;29;20531;-78
2021/01/25 01:44:54;;;;;;;8.23;5.05;;;0.80;99.90;;;;;;4956631;29;20115;-78
2021/01/25 01:47:21;;;;;;;9.32;4.85;;;0.70;99.90;;;;;;4956600;29;20062;-77
2021/01/25 01:49:56;;;;;;;6.13;4.63;;;0.80;99.90;;;;;;4957738;28;20475;-77
2021/01/25 01:52:23;;;;;;;7.85;4.60;;;0.90;99.90;;;;;;4940581;29;20039;-78
2021/01/25 01:54:50;;;;;;;9.70;5.45;;;1.10;99.90;;;;;;4956443;29;20031;-78
2021/01/25 01:57:16;;;;;;;8.25;4.95;;;1.30;99.90;;;;;;4957652;28;20253;-78
2021/01/25 01:59:42;;;;;;;10.68;4.72;;;1.20;99.90;;;;;;4957546;28;20027;-77
2021/01/25 02:02:08;;;;;;;10.82;4.85;;;1.30;99.90;;;;;;4956309;29;20035;-78
2021/01/25 02:04:34;;;;;;;8.35;4.90;;;1.20;99.90;;;;;;4956259;29;20019;-77
2021/01/25 02:07:05;;;;;;;10.02;5.00;;;1.20;99.90;;;;;;4956254;29;20030;-78
2021/01/25 02:09:35;;;;;;;9.18;5.15;;;1.10;99.90;;;;;;4956206;29;20409;-78
2021/01/25 02:12:03;;;;;;;8.80;5.43;;;0.90;99.90;;;;;;4956131;29;20027;-77
2021/01/25 02:14:29;;;;;;;14.07;6.45;;;1.00;99.90;;;;;;4956021;29;20487;-78
2021/01/25 02:16:55;;;;;;;7.95;5.05;;;1.10;99.90;;;;;;4955985;29;20034;-78
2021/01/25 02:19:48;;;;;;;13.45;6.10;;;1.20;99.90;;;;;;4955892;29;20035;-78
2021/01/25 02:22:35;;;;;;;8.88;5.10;;;1.10;99.90;;;;;;4955940;29;20030;-78
2021/01/25 02:25:13;;;;;;;12.40;5.55;;;1.00;99.90;;;;;;4955877;29;20024;-78
2021/01/25 02:27:43;;;;;;;9.13;5.28;;;1.10;99.90;;;;;;4955895;29;20027;-78
2021/01/25 02:30:11;;;;;;;7.68;4.95;;;1.10;99.90;;;;;;4957019;28;20038;-78
2021/01/25 02:32:38;;;;;;;11.45;5.07;;;1.10;99.90;;;;;;4955724;29;20031;-77
2021/01/25 02:35:10;;;;;;;9.40;5.38;;;1.00;99.90;;;;;;4954532;28;20038;-78
2021/01/25 02:37:38;;;;;;;9.70;5.68;;;1.10;99.90;;;;;;4939789;29;20134;-78
2021/01/25 02:40:06;;;;;;;10.52;6.03;;;1.00;99.90;;;;;;4955579;29;20027;-78
2021/01/25 02:42:33;;;;;;;8.80;5.43;;;0.80;99.90;;;;;;4940032;29;20027;-78
2021/01/25 02:44:59;;;;;;;9.27;5.50;;;0.80;99.90;;;;;;4955474;29;20502;-78
2021/01/25 02:47:26;;;;;;;10.50;5.88;;;1.00;99.90;;;;;;4955475;29;20387;-77
2021/01/25 02:49:52;;;;;;;9.63;5.82;;;1.10;99.90;;;;;;4955198;29;20053;-77
2021/01/25 02:52:17;;;;;;;8.75;5.28;;;1.20;99.90;;;;;;4955321;29;20031;-78
2021/01/25 02:54:44;;;;;;;10.15;5.93;;;1.20;99.90;;;;;;4956568;28;20046;-77
2021/01/25 02:57:13;;;;;;;10.70;5.30;;;1.20;99.90;;;;;;4955272;29;20047;-78
2021/01/25 02:59:40;;;;;;;9.27;5.50;;;1.20;99.90;;;;;;4955148;29;20050;-77
2021/01/25 03:02:06;;;;;;;8.50;5.18;;;1.30;99.90;;;;;;4955146;29;20025;-78
2021/01/25 03:04:37;;;;;;;10.23;5.85;;;1.30;99.90;;;;;;4955204;29;20027;-77
2021/01/25 03:07:04;;;;;;;13.23;7.35;;;1.10;99.90;;;;;;4956705;28;20019;-77
2021/01/25 03:09:32;;;;;;;16.17;8.27;;;1.00;99.90;;;;;;4956310;28;20046;-77
2021/01/25 03:11:58;;;;;;;10.65;6.25;;;1.00;99.90;;;;;;4955019;29;20031;-78
2021/01/25 03:14:24;;;;;;;10.68;5.53;;;0.90;99.90;;;;;;4954973;29;20377;-78
2021/01/25 03:16:50;;;;;;;9.98;5.93;;;0.80;99.90;;;;;;4955039;29;20490;-77
2021/01/25 03:19:16;;;;;;;9.98;5.65;;;0.80;99.90;;;;;;4954864;29;20097;-77
2021/01/25 03:21:49;;;;;;;13.05;6.05;;;0.70;99.90;;;;;;4954809;29;20023;-77
2021/01/25 03:24:18;;;;;;;10.07;5.57;;;0.70;99.90;;;;;;4956158;28;20418;-78
2021/01/25 03:26:45;;;;;;;8.25;4.75;;;0.60;99.90;;;;;;4954755;29;20399;-78
2021/01/25 03:29:11;;;;;;;8.02;4.88;;;0.70;99.90;;;;;;4954786;29;20023;-78
2021/01/25 03:31:38;;;;;;;7.60;4.05;;;0.70;99.90;;;;;;4954724;29;20027;-78
2021/01/25 03:34:05;;;;;;;5.75;4.03;;;0.70;99.90;;;;;;4956210;28;20405;-77
2021/01/25 03:36:31;;;;;;;8.07;4.60;;;0.80;99.90;;;;;;4955704;28;20058;-77
2021/01/25 03:38:57;;;;;;;8.43;4.00;;;0.90;99.90;;;;;;4955808;28;20027;-77
2021/01/25 03:41:23;;;;;;;6.78;3.78;;;1.00;99.90;;;;;;4954589;29;20035;-77
2021/01/25 03:43:48;;;;;;;7.38;4.50;;;1.10;99.90;;;;;;4954475;29;20043;-78
2021/01/25 03:46:14;;;;;;;8.18;3.75;;;1.20;99.90;;;;;;4954147;28;20067;-77
2021/01/25 03:48:40;;;;;;;5.63;3.75;;;1.30;99.90;;;;;;4954498;29;20023;-78
2021/01/25 03:51:06;;;;;;;6.05;3.28;;;1.40;99.90;;;;;;4954317;29;20106;-78
2021/01/25 03:53:34;;;;;;;6.72;4.45;;;1.20;99.90;;;;;;4955893;28;20533;-78
2021/01/25 03:56:00;;;;;;;4.70;3.20;;;1.30;99.90;;;;;;4954254;29;20438;-78
2021/01/25 03:58:26;;;;;;;5.15;3.20;;;1.40;99.90;;;;;;4955516;28;20027;-78
2021/01/25 04:00:52;;;;;;;4.80;3.20;;;1.20;99.90;;;;;;4955058;29;20124;-78
2021/01/25 04:03:17;;;;;;;6.43;3.67;;;1.30;99.90;;;;;;4954292;29;20030;-78
2021/01/25 04:05:43;;;;;;;5.63;3.45;;;1.40;99.90;;;;;;4954271;29;20027;-78
2021/01/25 04:08:09;;;;;;;6.00;3.28;;;1.40;99.90;;;;;;4954213;29;20023;-78
2021/01/25 04:10:35;;;;;;;7.20;4.00;;;1.30;99.90;;;;;;4954217;29;20058;-78
2021/01/25 04:13:00;;;;;;;4.65;3.65;;;1.20;99.90;;;;;;4955436;28;20054;-78
2021/01/25 04:15:26;;;;;;;6.95;3.92;;;1.00;99.90;;;;;;4955400;28;20035;-78
2021/01/25 04:17:52;;;;;;;5.63;4.00;;;0.90;99.90;;;;;;4954117;29;20027;-78
2021/01/25 04:20:18;;;;;;;6.78;4.13;;;0.90;99.90;;;;;;4955259;28;20042;-78
2021/01/25 04:22:43;;;;;;;5.72;3.63;;;0.80;99.90;;;;;;4955924;28;20098;-77
2021/01/25 04:25:10;;;;;;;7.50;3.70;;;0.80;99.90;;;;;;4955602;28;20075;-77
2021/01/25 04:27:35;;;;;;;5.10;3.17;;;0.80;99.90;;;;;;4954048;29;20034;-78
2021/01/25 04:30:04;;;;;;;5.78;3.63;;;0.80;99.90;;;;;;4953989;29;20114;-77
2021/01/25 04:32:29;;;;;;;4.63;3.50;;;0.90;99.90;;;;;;4953896;29;20543;-77
2021/01/25 04:34:55;;;;;;;5.53;3.42;;;0.90;99.90;;;;;;4955184;28;20027;-78
2021/01/25 04:37:21;;;;;;;6.28;3.22;;;1.10;99.90;;;;;;4955064;28;20555;-78
2021/01/25 04:39:47;;;;;;;8.73;4.13;;;1.10;99.90;;;;;;4953697;29;20407;-77
2021/01/25 04:42:13;;;;;;;6.40;3.42;;;1.10;99.90;;;;;;4955165;28;20027;-78
2021/01/25 04:44:39;;;;;;;8.68;3.95;;;1.00;99.90;;;;;;4954014;29;20479;-78
2021/01/25 04:47:05;;;;;;;7.22;4.28;;;1.00;99.90;;;;;;4955130;28;20098;-77
2021/01/25 04:49:32;;;;;;;8.10;3.75;;;1.10;99.90;;;;;;4955010;28;20113;-77
2021/01/25 04:51:58;;;;;;;7.18;4.05;;;1.30;99.90;;;;;;4953836;29;20030;-78
2021/01/25 04:54:25;;;;;;;7.65;3.58;;;1.30;99.90;;;;;;4953881;29;20376;-78
2021/01/25 04:56:52;;;;;;;5.88;3.60;;;1.30;99.90;;;;;;4953821;28;20031;-78
2021/01/25 04:59:18;;;;;;;5.43;3.88;;;1.50;99.90;;;;;;4958401;28;20479;-78
2021/01/25 05:01:44;;;;;;;5.03;3.67;;;1.50;99.90;;;;;;4957424;29;20031;-77
2021/01/25 05:04:10;;;;;;;6.45;3.60;;;1.30;99.90;;;;;;4958615;28;20030;-78
2021/01/25 05:06:36;;;;;;;5.95;3.45;;;1.10;99.90;;;;;;4958618;28;20027;-77
2021/01/25 05:09:03;;;;;;;6.72;3.65;;;1.20;99.90;;;;;;4958585;28;20078;-77
2021/01/25 05:11:28;;;;;;;5.18;3.58;;;1.30;99.90;;;;;;4941361;29;20054;-77
2021/01/25 05:14:04;;;;;;;7.70;4.03;;;1.40;99.90;;;;;;4958487;28;20042;-78
2021/01/25 05:16:31;;;;;;;5.47;3.55;;;1.50;99.90;;;;;;4957193;29;20027;-78
2021/01/25 05:19:02;;;;;;;6.25;4.10;;;1.60;99.90;;;;;;4957069;29;20033;-77
2021/01/25 05:21:57;;;;;;;5.13;3.60;;;1.70;99.90;;;;;;4957173;29;20028;-78
2021/01/25 05:24:23;;;;;;;6.63;3.80;;;1.70;99.90;;;;;;4941219;29;20046;-79
2021/01/25 05:26:53;;;;;;;6.07;3.83;;;1.70;99.90;;;;;;4957017;29;20019;-77
2021/01/25 05:29:26;;;;;;;5.80;3.70;;;1.60;99.90;;;;;;4956961;29;20030;-77
2021/01/25 05:31:52;;;;;;;5.75;3.17;;;1.60;99.90;;;;;;4958763;28;20380;-78
2021/01/25 05:34:21;;;;;;;5.47;3.60;;;1.60;99.90;;;;;;4958184;28;20031;-78
2021/01/25 05:36:48;;;;;;;5.22;3.63;;;1.60;99.90;;;;;;4958152;28;20027;-78
2021/01/25 05:39:18;;;;;;;5.72;3.47;;;1.50;99.90;;;;;;4956730;29;20031;-77
2021/01/25 05:41:58;;;;;;;5.63;3.20;;;1.40;99.90;;;;;;4956740;29;20027;-77
2021/01/25 05:44:24;;;;;;;6.00;3.65;;;1.20;99.90;;;;;;4956725;29;20145;-78
2021/01/25 05:46:50;;;;;;;6.72;3.78;;;1.00;99.90;;;;;;4956672;29;20431;-78
2021/01/25 05:49:26;;;;;;;6.63;3.85;;;1.10;99.90;;;;;;4957695;28;20043;-78
2021/01/25 05:51:55;;;;;;;6.90;3.72;;;1.20;99.90;;;;;;4956613;29;20028;-78
2021/01/25 05:54:24;;;;;;;6.90;3.42;;;1.20;99.90;;;;;;4957700;28;20556;-77
2021/01/25 05:56:51;;;;;;;8.82;4.10;;;1.30;99.90;;;;;;4957709;28;20114;-78
2021/01/25 05:59:17;;;;;;;5.72;3.78;;;1.30;99.90;;;;;;4956358;29;20031;-78
2021/01/25 06:01:44;;;;;;;6.68;4.45;;;1.00;99.90;;;;;;4958231;28;20028;-78
2021/01/25 06:04:19;;;;;;;9.18;5.63;;;0.90;99.90;;;;;;4956262;29;20091;-77
2021/01/25 06:07:11;;;;;;;8.02;4.40;;;0.90;99.90;;;;;;4956326;29;20023;-78
2021/01/25 06:09:54;;;;;;;5.35;3.75;;;0.80;99.90;;;;;;4955842;28;20042;-78
2021/01/25 06:12:50;;;;;;;8.40;4.53;;;0.80;99.90;;;;;;4957413;28;20055;-77
2021/01/25 06:15:20;;;;;;;6.35;3.70;;;0.60;99.90;;;;;;4941132;29;20039;-78
2021/01/25 06:17:48;;;;;;;6.25;3.55;;;0.80;99.90;;;;;;4955903;29;20072;-78
2021/01/25 06:20:17;;;;;;;6.57;3.50;;;0.80;99.90;;;;;;4957158;28;20028;-78
2021/01/25 06:22:45;;;;;;;8.48;4.50;;;0.80;99.90;;;;;;4957243;28;20024;-78
2021/01/25 06:25:13;;;;;;;7.75;3.70;;;0.80;99.90;;;;;;4955962;29;20027;-78
2021/01/25 06:27:41;;;;;;;6.47;3.58;;;0.70;99.90;;;;;;4955835;29;20030;-78
2021/01/25 06:30:10;;;;;;;8.90;4.35;;;0.60;99.90;;;;;;4957363;28;20110;-78
2021/01/25 06:32:38;;;;;;;8.50;4.50;;;0.60;99.90;;;;;;4957040;28;20487;-78
2021/01/25 06:35:05;;;;;;;10.10;5.88;;;0.50;99.90;;;;;;4955794;29;20027;-78
2021/01/25 06:37:34;;;;;;;11.50;6.45;;;0.50;99.90;;;;;;4955706;28;20487;-78
2021/01/25 06:40:11;;;;;;;13.20;8.55;;;0.50;99.90;;;;;;4955623;29;20023;-78
2021/01/25 06:42:40;;;;;;;13.15;7.88;;;0.50;99.90;;;;;;4955550;29;20023;-78
2021/01/25 06:45:07;;;;;;;15.77;9.93;;;0.50;99.90;;;;;;4955524;29;20500;-78
2021/01/25 06:47:35;;;;;;;7.90;5.47;;;0.50;99.90;;;;;;4955448;29;20024;-78
2021/01/25 06:50:02;;;;;;;12.80;7.85;;;0.40;99.90;;;;;;4955241;29;20059;-77
2021/01/25 06:52:30;;;;;;;8.07;5.80;;;0.50;99.90;;;;;;4956648;28;20030;-77
2021/01/25 06:55:10;;;;;;;9.63;5.57;;;0.50;99.90;;;;;;4956659;28;20507;-78
2021/01/25 06:57:36;;;;;;;7.68;5.60;;;0.50;99.90;;;;;;4955361;29;20032;-77
2021/01/25 07:00:12;;;;;;;7.63;4.65;;;0.50;99.90;;;;;;4956510;28;20035;-77
2021/01/25 07:03:19;;;;;;;6.40;4.80;;;0.70;99.90;;;;;;4939433;29;20023;-78
2021/01/25 07:05:44;;;;;;;9.88;5.60;;;0.70;99.90;;;;;;4918422;29;20062;-78
2021/01/25 07:08:22;;;;;;;9.32;5.85;;;0.70;99.90;;;;;;4956716;28;20475;-78
2021/01/25 07:11:08;;;;;;;9.15;6.20;;;0.70;99.90;;;;;;4955055;29;20035;-77
2021/01/25 07:13:35;;;;;;;10.93;6.38;;;0.70;99.90;;;;;;4955053;29;20475;-78
2021/01/25 07:16:02;;;;;;;10.18;6.15;;;0.70;99.90;;;;;;4956292;28;20098;-77
2021/01/25 07:18:29;;;;;;;10.43;6.43;;;0.70;99.90;;;;;;4956523;28;20494;-77
2021/01/25 07:20:57;;;;;;;10.60;6.65;;;0.60;99.90;;;;;;4954242;28;20069;-78
2021/01/25 07:23:25;;;;;;;9.00;6.35;;;0.60;99.90;;;;;;4956074;28;20475;-78
2021/01/25 07:25:55;;;;;;;7.90;5.63;;;0.50;99.90;;;;;;4954815;29;20027;-78
2021/01/25 07:28:22;;;;;;;11.30;5.97;;;0.60;99.90;;;;;;4956342;28;20027;-78
2021/01/25 07:30:49;;;;;;;9.35;5.82;;;0.70;99.90;;;;;;4954716;29;20050;-78
2021/01/25 07:33:15;;;;;;;9.15;5.97;;;0.70;99.90;;;;;;4954710;29;20031;-78
2021/01/25 07:35:41;;;;;;;9.05;5.50;;;0.70;99.90;;;;;;4954647;29;20491;-77
2021/01/25 07:38:07;;;;;;;8.93;5.70;;;0.80;99.90;;;;;;4954517;28;20074;-78
2021/01/25 07:40:32;;;;;;;7.75;5.20;;;0.90;99.90;;;;;;4956021;28;20113;-77
2021/01/25 07:43:02;;;;;;;9.48;5.47;;;1.10;99.90;;;;;;4956056;28;20078;-78
2021/01/25 07:45:27;;;;;;;7.00;5.60;;;1.20;99.90;;;;;;4954720;29;20019;-78
2021/01/25 07:47:53;;;;;;;7.28;4.90;;;1.40;99.90;;;;;;4955731;28;20106;-77
2021/01/25 07:50:19;;;;;;;10.20;5.50;;;1.40;99.90;;;;;;4954276;29;20047;-77
2021/01/25 07:52:45;;;;;;;7.13;4.70;;;1.30;99.90;;;;;;4954411;29;20127;-78
2021/01/25 07:55:15;;;;;;;6.75;5.05;;;1.40;99.90;;;;;;4954347;29;20027;-77
2021/01/25 07:57:43;;;;;;;9.32;5.15;;;1.40;99.90;;;;;;4954312;29;20192;-77
2021/01/25 08:00:23;;;;;;;7.18;5.15;;;1.40;99.90;;;;;;4954220;29;20114;-77
2021/01/25 08:03:27;;;;;;;7.15;5.00;;;1.60;99.90;;;;;;4954848;29;20340;-78
2021/01/25 08:05:55;;;;;;;8.77;5.65;;;1.80;99.90;;;;;;4952245;29;20035;-77
2021/01/25 08:08:22;;;;;;;8.55;5.05;;;1.60;99.90;;;;;;4954147;29;20038;-78
2021/01/25 08:10:49;;;;;;;7.53;5.53;;;1.70;99.90;;;;;;4955649;28;20035;-77
2021/01/25 08:13:17;;;;;;;8.27;6.00;;;1.60;99.90;;;;;;4954112;29;20514;-78
2021/01/25 08:16:15;;;;;;;11.15;7.43;;;1.70;99.90;;;;;;4955351;28;20023;-78
2021/01/25 08:18:45;;;;;;;9.77;6.28;;;1.70;99.90;;;;;;4944131;28;20043;-78
2021/01/25 08:21:21;;;;;;;8.90;5.50;;;1.70;99.90;;;;;;4954005;29;20130;-78
2021/01/25 08:23:50;;;;;;;10.50;6.28;;;1.70;99.90;;;;;;4954088;29;20098;-78
2021/01/25 08:26:23;;;;;;;9.07;6.07;;;1.60;99.90;;;;;;4954043;29;20019;-77
2021/01/25 08:28:55;;;;;;;9.57;5.45;;;1.60;99.90;;;;;;4955251;28;20034;-78
2021/01/25 08:31:34;;;;;;;8.90;5.93;;;1.60;99.90;;;;;;4954445;28;20030;-78
2021/01/25 08:34:16;;;;;;;11.63;5.60;;;1.60;99.90;;;;;;4957958;29;20136;-78
2021/01/25 08:36:42;;;;;;;6.88;5.10;;;1.70;99.90;;;;;;4957850;28;20411;-78
2021/01/25 08:39:15;;;;;;;8.10;5.40;;;1.60;99.90;;;;;;4957721;29;20118;-77
2021/01/25 08:41:52;;;;;;;11.20;5.40;;;1.50;99.90;;;;;;4959308;28;20023;-77
2021/01/25 08:44:20;;;;;;;9.13;5.28;;;1.50;99.90;;;;;;4957716;29;20023;-77
2021/01/25 08:46:47;;;;;;;7.63;5.53;;;1.60;99.90;;;;;;4957635;29;20427;-78
2021/01/25 08:49:20;;;;;;;10.25;6.07;;;1.70;99.90;;;;;;4958684;28;20404;-78
2021/01/25 08:52:03;;;;;;;7.78;5.60;;;1.60;99.90;;;;;;4957682;29;20023;-78
2021/01/25 08:54:31;;;;;;;7.70;5.80;;;1.60;99.90;;;;;;4957554;29;20082;-78
2021/01/25 08:56:58;;;;;;;8.18;5.97;;;1.70;99.90;;;;;;4957466;29;20023;-78
2021/01/25 08:59:34;;;;;;;8.57;5.43;;;1.80;99.90;;;;;;4957373;29;20023;-78
2021/01/25 09:02:22;;;;;;;13.88;6.80;;;2.10;99.90;;;;;;4957425;29;20475;-77
2021/01/25 09:04:52;;;;;;;6.63;5.22;;;2.00;99.90;;;;;;4957388;29;20526;-78
2021/01/25 09:07:20;;;;;;;6.72;5.15;;;2.10;99.90;;;;;;4957274;29;20055;-78
2021/01/25 09:09:47;;;;;;;9.13;5.88;;;2.10;99.90;;;;;;4958433;28;20395;-78
2021/01/25 09:12:17;;;;;;;10.18;6.35;;;2.20;99.90;;;;;;4958638;28;20023;-78
2021/01/25 09:14:43;;;;;;;9.13;5.95;;;2.30;99.90;;;;;;4941332;29;20036;-78
2021/01/25 09:17:10;;;;;;;6.80;5.13;;;2.40;99.90;;;;;;4958333;28;20521;-78
2021/01/25 09:19:37;;;;;;;11.55;5.72;;;2.60;99.90;;;;;;4957011;29;20031;-78
2021/01/25 09:22:04;;;;;;;9.02;5.28;;;2.80;99.90;;;;;;4958292;28;20483;-78
2021/01/25 09:24:30;;;;;;;7.72;5.80;;;2.90;99.90;;;;;;4958209;28;20023;-77
2021/01/25 09:26:57;;;;;;;16.90;6.78;;;3.10;99.90;;;;;;4958186;29;20027;-78
2021/01/25 09:29:23;;;;;;;11.02;7.15;;;3.00;99.90;;;;;;4958195;28;20031;-78
2021/01/25 09:31:48;;;;;;;8.95;6.35;;;2.90;99.90;;;;;;4956883;29;20027;-78
2021/01/25 09:34:14;;;;;;;8.80;7.00;;;3.00;99.90;;;;;;4956814;29;20025;-78
2021/01/25 09:36:40;;;;;;;14.73;6.70;;;3.00;99.90;;;;;;4956787;28;20020;-78
2021/01/25 09:39:07;;;;;;;8.88;6.72;;;2.90;99.90;;;;;;4957645;29;20511;-78
2021/01/25 09:41:35;;;;;;;10.55;6.28;;;3.00;99.90;;;;;;4956808;29;20042;-78
2021/01/25 09:44:01;;;;;;;9.65;6.18;;;3.20;99.90;;;;;;4956008;28;20119;-78
2021/01/25 09:46:27;;;;;;;9.80;6.43;;;3.20;99.90;;;;;;4956548;29;20035;-78
2021/01/25 09:48:52;;;;;;;9.93;6.97;;;3.20;99.90;;;;;;4956334;29;20071;-79
2021/01/25 09:51:18;;;;;;;12.82;6.85;;;3.20;99.90;;;;;;4956524;29;20031;-78
2021/01/25 09:53:44;;;;;;;13.52;7.97;;;3.20;99.90;;;;;;4956475;29;20023;-78
2021/01/25 09:56:10;;;;;;;10.23;6.55;;;3.20;99.90;;;;;;4956463;29;20075;-78
2021/01/25 09:58:36;;;;;;;9.48;6.00;;;3.20;99.90;;;;;;4957696;28;20024;-78
2021/01/25 10:01:04;;;;;;;10.95;6.50;;;3.30;99.90;;;;;;4957496;28;20479;-78
2021/01/25 10:03:30;;;;;;;7.57;4.80;;;3.20;99.90;;;;;;4956376;29;20028;-78
2021/01/25 10:05:55;;;;;;;6.65;4.28;;;3.30;99.90;;;;;;4956220;29;20498;-78
2021/01/25 10:08:21;;;;;;;5.75;4.40;;;3.30;99.90;;;;;;4956210;29;20113;-78
2021/01/25 10:10:47;;;;;;;6.50;4.60;;;3.30;99.90;;;;;;4956208;29;20050;-79
2021/01/25 10:13:13;;;;;;;7.15;4.13;;;3.40;99.90;;;;;;4956188;29;20058;-79
2021/01/25 10:15:39;;;;;;;6.88;4.40;;;3.40;99.90;;;;;;4957684;28;20031;-79
2021/01/25 10:18:05;;;;;;;9.73;4.53;;;3.40;99.90;;;;;;4955992;29;20439;-80
2021/01/25 10:20:30;;;;;;;7.13;4.57;;;3.40;99.90;;;;;;4955924;29;20475;-80
2021/01/25 10:22:56;;;;;;;7.38;4.40;;;3.60;99.90;;;;;;4957164;28;20027;-79
2021/01/25 10:25:23;;;;;;;8.07;4.63;;;3.60;99.90;;;;;;4955957;29;20106;-79
2021/01/25 10:27:49;;;;;;;6.07;3.35;;;3.70;99.90;;;;;;4955920;29;20034;-79
2021/01/25 10:30:18;;;;;;;5.68;3.60;;;3.70;99.90;;;;;;4957179;29;20468;-80
2021/01/25 10:32:45;;;;;;;6.75;3.88;;;3.70;99.90;;;;;;4955931;29;20030;-80
2021/01/25 10:35:12;;;;;;;4.70;3.45;;;3.80;99.90;;;;;;4955761;29;20400;-80
2021/01/25 10:37:38;;;;;;;3.50;2.63;;;3.80;99.90;;;;;;4957459;28;20134;-77
2021/01/25 10:40:05;;;;;;;5.00;3.17;;;3.90;99.90;;;;;;4955635;29;20035;-80
2021/01/25 10:42:31;;;;;;;3.90;3.30;;;3.90;99.90;;;;;;4955616;29;20019;-80
2021/01/25 10:44:56;;;;;;;6.82;3.28;;;3.80;99.90;;;;;;4955588;29;20090;-80
2021/01/25 10:47:22;;;;;;;5.55;3.47;;;3.90;99.90;;;;;;4955573;29;20122;-79
2021/01/25 10:49:49;;;;;;;6.85;3.25;;;4.10;99.90;;;;;;4955324;29;20090;-78
2021/01/25 10:52:16;;;;;;;4.57;2.15;;;4.00;99.90;;;;;;4955458;29;20081;-79
2021/01/25 10:54:41;;;;;;;4.38;2.80;;;3.90;99.90;;;;;;4954819;28;20027;-78
2021/01/25 10:57:08;;;;;;;5.25;3.03;;;4.00;99.90;;;;;;4954994;29;20471;-78
2021/01/25 10:59:35;;;;;;;3.33;2.53;;;3.90;99.90;;;;;;4955240;29;20038;-79
2021/01/25 11:02:01;;;;;;;5.20;2.53;;;3.80;99.90;;;;;;4955235;29;20026;-78
2021/01/25 11:04:27;;;;;;;3.20;2.10;;;3.60;99.90;;;;;;4955278;29;20058;-77
2021/01/25 11:06:53;;;;;;;7.70;2.50;;;3.40;99.90;;;;;;4957015;29;20027;-77
2021/01/25 11:09:18;;;;;;;9.02;4.15;;;3.40;99.90;;;;;;4956407;28;20027;-78
2021/01/25 11:11:44;;;;;;;2.95;2.05;;;3.50;99.90;;;;;;4955100;29;20027;-78
2021/01/25 11:14:10;;;;;;;2.20;1.70;;;4.00;99.90;;;;;;4954902;29;20403;-78
2021/01/25 11:16:45;;;;;;;2.97;1.88;;;4.30;99.90;;;;;;5071152;28;20302;-78
2021/01/25 11:19:11;;;;;;;4.25;2.17;;;4.60;99.90;;;;;;5069469;28;20444;-78
2021/01/25 11:21:38;;;;;;;2.67;2.10;;;5.10;99.90;;;;;;5069501;28;20029;-78
2021/01/25 11:24:05;;;;;;;5.30;1.90;;;5.40;99.90;;;;;;5070731;28;20095;-77
2021/01/25 11:26:36;;;;;;;4.85;2.03;;;5.60;99.90;;;;;;5069891;28;20024;-78
2021/01/25 11:29:02;;;;;;;2.90;2.03;;;5.90;99.90;;;;;;5069428;28;20049;-77
2021/01/25 11:31:28;;;;;;;5.97;2.08;;;6.20;99.90;;;;;;5070607;28;20052;-77
2021/01/25 11:33:53;;;;;;;4.50;2.58;;;6.40;99.90;;;;;;5069245;28;20021;-77
2021/01/25 11:36:19;;;;;;;3.38;2.20;;;6.30;99.90;;;;;;5066218;28;20044;-77
2021/01/25 11:38:45;;;;;;;3.38;2.15;;;6.40;99.90;;;;;;5051046;28;20025;-77
2021/01/25 11:41:10;;;;;;;4.05;2.13;;;6.30;99.90;;;;;;5049115;28;20120;-77
2021/01/25 11:43:36;;;;;;;3.83;2.17;;;6.20;99.90;;;;;;5050697;28;20026;-77
2021/01/25 11:46:02;;;;;;;2.65;1.70;;;5.80;99.90;;;;;;5049041;28;20021;-78
2021/01/25 11:48:27;;;;;;;3.15;1.90;;;5.70;99.90;;;;;;5050290;28;20040;-77
2021/01/25 11:50:53;;;;;;;2.13;1.45;;;5.60;99.90;;;;;;5048995;28;20128;-77
2021/01/25 11:53:19;;;;;;;2.42;1.83;;;5.70;99.90;;;;;;5048833;28;20393;-77
2021/01/25 11:55:45;;;;;;;2.53;1.90;;;5.50;99.90;;;;;;5050118;28;20025;-77
2021/01/25 11:58:11;;;;;;;3.13;2.00;;;5.50;99.90;;;;;;5048882;28;20029;-78
2021/01/25 12:00:37;;;;;;;5.10;2.50;;;5.30;99.90;;;;;;5048825;28;20055;-77
2021/01/25 12:03:03;;;;;;;2.35;1.65;;;5.20;99.90;;;;;;5048813;28;20416;-77
2021/01/25 12:05:29;;;;;;;2.38;1.65;;;5.40;99.90;;;;;;5049984;28;20044;-77
2021/01/25 12:07:57;;;;;;;2.03;1.70;;;5.40;99.90;;;;;;5032149;28;20485;-77
2021/01/25 12:10:23;;;;;;;3.30;1.83;;;5.30;99.90;;;;;;5049910;28;20025;-78
2021/01/25 12:12:49;;;;;;;3.60;2.33;;;5.30;99.90;;;;;;5048517;28;20420;-77
2021/01/25 12:15:15;;;;;;;2.33;1.63;;;5.40;99.90;;;;;;5057387;28;20048;-77
2021/01/25 12:17:41;;;;;;;2.00;1.65;;;5.60;99.90;;;;;;5069575;28;20027;-77
2021/01/25 12:20:07;;;;;;;2.35;1.70;;;5.70;99.90;;;;;;5051691;28;20116;-77
2021/01/25 12:22:33;;;;;;;2.33;1.52;;;5.40;99.90;;;;;;5069716;28;20399;-78
2021/01/25 12:24:58;;;;;;;2.03;1.83;;;5.40;99.90;;;;;;5051585;28;20111;-78
2021/01/25 12:27:24;;;;;;;1.73;1.45;;;5.40;99.90;;;;;;5042153;28;20029;-77
2021/01/25 12:29:50;;;;;;;1.88;1.40;;;5.40;99.90;;;;;;5056474;28;20025;-78
2021/01/25 12:32:15;;;;;;;2.13;1.58;;;5.60;99.90;;;;;;5021891;28;20114;-78
2021/01/25 12:34:42;;;;;;;1.30;1.20;;;5.70;99.90;;;;;;5038495;28;20036;-77
2021/01/25 12:37:08;;;;;;;1.75;1.38;;;5.70;99.90;;;;;;5038149;28;20075;-79
2021/01/25 12:39:34;;;;;;;1.92;1.30;;;5.80;99.90;;;;;;5038147;28;20032;-77
2021/01/25 12:42:00;;;;;;;1.98;1.05;;;5.80;99.90;;;;;;5038148;28;20025;-77
2021/01/25 12:44:26;;;;;;;2.80;1.50;;;5.90;99.90;;;;;;5038137;28;20021;-77
2021/01/25 12:46:52;;;;;;;1.75;1.38;;;5.90;99.90;;;;;;5038007;28;20021;-78
2021/01/25 12:49:19;;;;;;;2.10;1.20;;;6.00;99.90;;;;;;5055865;28;20044;-77
2021/01/25 12:51:45;;;;;;;1.60;1.08;;;5.90;99.90;;;;;;5037998;28;20416;-78
2021/01/25 12:54:11;;;;;;;2.03;1.08;;;5.90;99.90;;;;;;5056074;28;20021;-77
2021/01/25 12:56:37;;;;;;;1.20;0.93;;;5.90;99.90;;;;;;5038017;28;20025;-77
2021/01/25 12:59:04;;;;;;;1.20;0.80;;;5.80;99.90;;;;;;5055653;28;20079;-77